Time;durP1;ratioP1;P1;durP2;ratioP2;P2;SDS_P1;SDS_P2;PMS_P1;PMS_P2;Temp;Humidity;BMP_temperature;BMP_pressure;BME280_temperature;BME280_humidity;BME280_pressure;Samples;Min_cycle;Max_cycle;Signal;HPM_P1;HPM_P2
2023/07/12 19:08:39;;;;;;;11.05;3.30;;;;;;;;;;5078521;27;20384;-70
2023/07/12 19:11:12;;;;;;;7.05;2.83;;;;;;;;;;5066178;28;20040;-70
2023/07/12 19:13:41;;;;;;;6.82;3.25;;;;;;;;;;5067996;28;20052;-70
2023/07/12 19:16:07;;;;;;;10.27;3.35;;;;;;;;;;5062849;28;20059;-70
2023/07/12 19:18:33;;;;;;;9.95;3.40;;;;;;;;;;5065004;28;20063;-70
2023/07/12 19:21:02;;;;;;;9.60;3.03;;;;;;;;;;5062314;28;20049;-70
2023/07/12 19:23:28;;;;;;;7.03;3.00;;;;;;;;;;5056066;28;20044;-70
2023/07/12 19:25:54;;;;;;;10.10;3.80;;;;;;;;;;5070588;28;20072;-70
2023/07/12 19:28:20;;;;;;;7.30;2.97;;;;;;;;;;5073678;28;20055;-70
2023/07/12 19:30:48;;;;;;;9.55;3.42;;;;;;;;;;5064897;28;20063;-71
2023/07/12 19:33:17;;;;;;;7.93;3.13;;;;;;;;;;5067259;28;20116;-70
2023/07/12 19:35:44;;;;;;;11.88;3.83;;;;;;;;;;5073007;28;20048;-70
2023/07/12 19:38:10;;;;;;;12.98;3.75;;;;;;;;;;5072058;28;20048;-70
2023/07/12 19:40:36;;;;;;;11.65;4.05;;;;;;;;;;5065613;28;20091;-71
2023/07/12 19:43:02;;;;;;;16.20;4.03;;;;;;;;;;5065819;28;20033;-71
2023/07/12 19:45:28;;;;;;;9.57;3.60;;;;;;;;;;5066439;28;20049;-71
2023/07/12 19:47:55;;;;;;;11.55;4.10;;;;;;;;;;5067379;28;20120;-70
2023/07/12 19:50:25;;;;;;;13.05;4.20;;;;;;;;;;5050751;28;20492;-70
2023/07/12 19:52:51;;;;;;;15.05;4.18;;;;;;;;;;5058042;28;20163;-71
2023/07/12 19:55:25;;;;;;;15.30;4.45;;;;;;;;;;5062797;28;20444;-71
2023/07/12 19:57:52;;;;;;;16.33;4.70;;;;;;;;;;5066614;28;20053;-70
2023/07/12 20:00:19;;;;;;;15.50;4.35;;;;;;;;;;5065042;28;20397;-70
2023/07/12 20:02:45;;;;;;;20.40;11.13;;;;;;;;;;5067111;28;20056;-71
2023/07/12 20:05:11;;;;;;;16.77;4.63;;;;;;;;;;5064912;28;20496;-71
2023/07/12 20:07:38;;;;;;;13.93;3.97;;;;;;;;;;5077036;28;20499;-71
2023/07/12 20:10:05;;;;;;;12.18;3.80;;;;;;;;;;5087328;28;20097;-71
2023/07/12 20:12:31;;;;;;;15.85;5.70;;;;;;;;;;5083256;28;20048;-70
2023/07/12 20:14:57;;;;;;;14.52;3.95;;;;;;;;;;5085738;28;20040;-70
2023/07/12 20:17:23;;;;;;;8.93;3.60;;;;;;;;;;5066381;28;20105;-71
2023/07/12 20:19:49;;;;;;;12.85;3.85;;;;;;;;;;5072819;28;20044;-70
2023/07/12 20:22:15;;;;;;;8.95;4.22;;;;;;;;;;5072262;28;20056;-70
2023/07/12 20:24:42;;;;;;;15.65;4.32;;;;;;;;;;5052436;28;20060;-70
2023/07/12 20:27:09;;;;;;;13.48;4.38;;;;;;;;;;5072416;28;20037;-71
2023/07/12 20:29:36;;;;;;;20.63;4.88;;;;;;;;;;5054493;28;20396;-70
2023/07/12 20:32:02;;;;;;;11.18;4.15;;;;;;;;;;5066827;28;20407;-70
2023/07/12 20:34:30;;;;;;;14.65;4.57;;;;;;;;;;5053290;28;20466;-70
2023/07/12 20:36:56;;;;;;;14.63;4.68;;;;;;;;;;5056424;28;20123;-71
2023/07/12 20:39:22;;;;;;;11.40;4.13;;;;;;;;;;5055591;28;20568;-70
2023/07/12 20:41:48;;;;;;;11.10;4.03;;;;;;;;;;5068424;28;20072;-71
2023/07/12 20:44:15;;;;;;;14.57;4.05;;;;;;;;;;5074072;28;20051;-70
2023/07/12 20:46:41;;;;;;;11.30;3.97;;;;;;;;;;5070874;28;20098;-70
2023/07/12 20:49:09;;;;;;;12.40;4.38;;;;;;;;;;5071975;28;20043;-70
2023/07/12 20:51:36;;;;;;;13.93;5.45;;;;;;;;;;5067315;28;20076;-70
2023/07/12 20:54:03;;;;;;;15.15;5.07;;;;;;;;;;5071737;28;20047;-70
2023/07/12 20:56:29;;;;;;;14.50;4.53;;;;;;;;;;5071942;28;20048;-71
2023/07/12 20:58:55;;;;;;;13.50;4.72;;;;;;;;;;5056262;28;20480;-71
2023/07/12 21:01:25;;;;;;;15.80;4.18;;;;;;;;;;5068957;28;20066;-70
2023/07/12 21:03:52;;;;;;;16.38;4.65;;;;;;;;;;5075697;28;20071;-70
2023/07/12 21:06:22;;;;;;;15.77;4.70;;;;;;;;;;5055501;28;20081;-70
2023/07/12 21:08:48;;;;;;;19.08;5.65;;;;;;;;;;5045757;28;20072;-70
2023/07/12 21:11:15;;;;;;;16.35;5.28;;;;;;;;;;5039967;28;20067;-70
2023/07/12 21:13:42;;;;;;;13.25;4.53;;;;;;;;;;5062767;28;20051;-70
2023/07/12 21:16:09;;;;;;;15.00;4.53;;;;;;;;;;5053876;28;20048;-70
2023/07/12 21:18:36;;;;;;;13.77;4.82;;;;;;;;;;5050463;28;20049;-70
2023/07/12 21:21:02;;;;;;;18.88;5.35;;;;;;;;;;5067207;28;20420;-70
2023/07/12 21:23:28;;;;;;;21.30;5.57;;;;;;;;;;5070590;28;20070;-70
2023/07/12 21:25:54;;;;;;;20.17;6.60;;;;;;;;;;5054050;28;20097;-69
2023/07/12 21:28:21;;;;;;;22.23;6.10;;;;;;;;;;5073042;28;20052;-70
2023/07/12 21:30:48;;;;;;;20.65;6.13;;;;;;;;;;5070139;28;20139;-69
2023/07/12 21:33:14;;;;;;;17.23;5.50;;;;;;;;;;5052497;28;20101;-69
2023/07/12 21:35:48;;;;;;;18.85;5.80;;;;;;;;;;5072874;28;20124;-69
2023/07/12 21:38:14;;;;;;;18.48;5.22;;;;;;;;;;5070534;28;20400;-70
2023/07/12 21:40:41;;;;;;;9.55;3.67;;;;;;;;;;5053757;28;20044;-70
2023/07/12 21:43:08;;;;;;;19.50;5.65;;;;;;;;;;5070456;28;20037;-70
2023/07/12 21:45:34;;;;;;;15.40;5.03;;;;;;;;;;5071520;28;20048;-70
2023/07/12 21:48:00;;;;;;;16.42;5.07;;;;;;;;;;5058991;28;20049;-70
2023/07/12 21:50:27;;;;;;;17.42;5.38;;;;;;;;;;5058041;28;20036;-70
2023/07/12 21:52:53;;;;;;;20.58;5.03;;;;;;;;;;5068038;28;20441;-70
2023/07/12 21:55:19;;;;;;;11.80;4.07;;;;;;;;;;5047064;28;20040;-70
2023/07/12 21:57:47;;;;;;;13.05;4.10;;;;;;;;;;5071070;28;20127;-70
2023/07/12 22:00:15;;;;;;;8.80;3.10;;;;;;;;;;5069394;28;20571;-70
2023/07/12 22:02:42;;;;;;;8.35;3.40;;;;;;;;;;5052327;28;20052;-70
2023/07/12 22:05:08;;;;;;;9.85;3.42;;;;;;;;;;5068012;28;20040;-70
2023/07/12 22:07:35;;;;;;;11.45;3.38;;;;;;;;;;5051369;28;20511;-70
2023/07/12 22:10:01;;;;;;;11.00;3.60;;;;;;;;;;5051902;28;20186;-70
2023/07/12 22:12:27;;;;;;;7.97;3.45;;;;;;;;;;5071633;28;20059;-69
2023/07/12 22:14:53;;;;;;;11.80;4.00;;;;;;;;;;5052476;28;20080;-70
2023/07/12 22:17:19;;;;;;;10.60;3.67;;;;;;;;;;5068531;28;20127;-70
2023/07/12 22:19:45;;;;;;;8.48;3.42;;;;;;;;;;5069767;28;20044;-69
2023/07/12 22:22:11;;;;;;;10.18;4.07;;;;;;;;;;5051340;28;20139;-70
2023/07/12 22:24:41;;;;;;;7.32;3.10;;;;;;;;;;5070057;28;20048;-70
2023/07/12 22:27:08;;;;;;;13.18;5.22;;;;;;;;;;5049492;28;20072;-70
2023/07/12 22:29:35;;;;;;;12.90;4.20;;;;;;;;;;5071194;28;20063;-70
2023/07/12 22:32:03;;;;;;;8.60;3.40;;;;;;;;;;5071758;28;20044;-70
2023/07/12 22:34:30;;;;;;;8.68;2.75;;;;;;;;;;5071029;28;20451;-70
2023/07/12 22:36:56;;;;;;;6.72;2.90;;;;;;;;;;5054192;28;20132;-70
2023/07/12 22:39:23;;;;;;;7.40;3.00;;;;;;;;;;5068410;28;20524;-70
2023/07/12 22:41:49;;;;;;;8.23;2.80;;;;;;;;;;5069544;28;20049;-70
2023/07/12 22:44:15;;;;;;;10.43;3.20;;;;;;;;;;5057991;28;20036;-70
2023/07/12 22:46:41;;;;;;;7.57;2.70;;;;;;;;;;5074664;28;20044;-70
2023/07/12 22:49:07;;;;;;;10.38;3.22;;;;;;;;;;5081875;28;20377;-70
2023/07/12 22:51:34;;;;;;;10.88;3.38;;;;;;;;;;5071123;28;20042;-70
2023/07/12 22:54:00;;;;;;;7.70;2.70;;;;;;;;;;5068723;28;20049;-70
2023/07/12 22:56:28;;;;;;;7.38;2.55;;;;;;;;;;5070390;28;20120;-70
2023/07/12 22:58:54;;;;;;;5.50;2.65;;;;;;;;;;5054719;28;20173;-70
2023/07/12 23:01:21;;;;;;;5.22;2.45;;;;;;;;;;5051972;28;20102;-69
2023/07/12 23:03:47;;;;;;;7.50;2.30;;;;;;;;;;5049898;28;20051;-70
2023/07/12 23:06:16;;;;;;;8.23;2.13;;;;;;;;;;5067824;28;20473;-70
2023/07/12 23:08:43;;;;;;;5.85;2.10;;;;;;;;;;5052956;28;20381;-69
2023/07/12 23:11:12;;;;;;;10.95;2.38;;;;;;;;;;5048662;28;20060;-70
2023/07/12 23:13:38;;;;;;;5.82;2.47;;;;;;;;;;5050808;28;20408;-70
2023/07/12 23:16:16;;;;;;;6.07;2.00;;;;;;;;;;5066906;28;20109;-70
2023/07/12 23:18:45;;;;;;;6.20;2.40;;;;;;;;;;5049373;28;20476;-70
2023/07/12 23:21:12;;;;;;;6.32;2.00;;;;;;;;;;5065985;28;20049;-69
2023/07/12 23:23:40;;;;;;;4.45;2.08;;;;;;;;;;5064947;28;20052;-69
2023/07/12 23:26:10;;;;;;;2.20;1.50;;;;;;;;;;5066470;28;20488;-70
2023/07/12 23:28:36;;;;;;;6.80;2.08;;;;;;;;;;5071421;28;20053;-70
2023/07/12 23:31:02;;;;;;;4.03;1.60;;;;;;;;;;5069880;28;20044;-70
2023/07/12 23:33:29;;;;;;;6.60;1.98;;;;;;;;;;5071073;28;20048;-69
2023/07/12 23:35:55;;;;;;;4.82;1.58;;;;;;;;;;5051586;28;20098;-70
2023/07/12 23:38:23;;;;;;;3.42;1.63;;;;;;;;;;5053001;28;20151;-69
2023/07/12 23:40:49;;;;;;;2.78;1.90;;;;;;;;;;5067371;28;21897;-69
2023/07/12 23:43:16;;;;;;;3.70;1.60;;;;;;;;;;5070462;28;20047;-69
2023/07/12 23:45:42;;;;;;;4.65;1.80;;;;;;;;;;5067477;28;20053;-69
2023/07/12 23:48:08;;;;;;;2.90;1.50;;;;;;;;;;5066653;28;20051;-69
2023/07/12 23:50:34;;;;;;;4.65;1.85;;;;;;;;;;5052960;28;20044;-69
2023/07/12 23:53:01;;;;;;;4.05;2.03;;;;;;;;;;5068138;28;20048;-69
2023/07/12 23:55:27;;;;;;;4.82;1.52;;;;;;;;;;5072391;28;20074;-69
2023/07/12 23:57:53;;;;;;;6.60;1.70;;;;;;;;;;5055148;28;20052;-69
